Time;durP1;ratioP1;P1;durP2;ratioP2;P2;SDS_P1;SDS_P2;PMS_P1;PMS_P2;Temp;Humidity;BMP_temperature;BMP_pressure;BME280_temperature;BME280_humidity;BME280_pressure;Samples;Min_cycle;Max_cycle;Signal;HPM_P1;HPM_P2
2023/07/04 00:01:32;;;;;;;9.77;3.47;;;;;;;-148.88;89.53;-17125.47;5016341;28;20101;-74
2023/07/04 00:03:58;;;;;;;10.98;3.65;;;;;;;-148.88;96.20;-17125.47;5016797;28;20052;-73
2023/07/04 00:06:28;;;;;;;12.77;3.78;;;;;;;-148.88;100.00;-17125.47;4998886;28;20392;-73
2023/07/04 00:08:53;;;;;;;10.93;4.18;;;;;;;-148.88;100.00;-17125.47;5016416;28;20033;-73
2023/07/04 00:11:19;;;;;;;12.35;4.38;;;;;;;-148.88;100.00;-17125.47;5015998;28;20034;-73
2023/07/04 00:13:45;;;;;;;8.32;3.63;;;;;;;-148.88;100.00;-17125.47;5016109;28;20373;-73
2023/07/04 00:16:13;;;;;;;12.93;4.75;;;;;;;-148.88;100.00;-17125.47;5016122;28;20451;-73
2023/07/04 00:18:39;;;;;;;11.70;3.95;;;;;;;-148.88;100.00;-17125.47;5015853;28;20048;-73
2023/07/04 00:21:11;;;;;;;14.77;4.00;;;;;;;-148.88;100.00;-17125.47;5016098;28;20022;-72
2023/07/04 00:23:37;;;;;;;11.20;4.47;;;;;;;-148.88;100.00;-17125.47;4998384;28;20029;-73
2023/07/04 00:26:06;;;;;;;11.82;4.13;;;;;;;-148.88;100.00;-17125.47;4998475;28;20105;-73
2023/07/04 00:28:38;;;;;;;12.38;4.25;;;;;;;-148.88;100.00;-17125.47;5016356;28;20033;-73
2023/07/04 00:31:06;;;;;;;13.60;4.75;;;;;;;-148.88;100.00;-17125.47;4998203;28;20477;-73
2023/07/04 00:33:33;;;;;;;9.45;4.20;;;;;;;-148.88;100.00;-17125.47;4998060;28;20026;-74
2023/07/04 00:36:04;;;;;;;8.82;3.70;;;;;;;-148.88;100.00;-17125.47;4998103;28;20018;-73
2023/07/04 00:38:32;;;;;;;5.68;2.25;;;;;;;-148.88;100.00;-17125.47;5015734;28;20029;-73
2023/07/04 00:41:11;;;;;;;4.85;2.00;;;;;;;-148.88;100.00;-17125.47;4998038;28;20033;-73
2023/07/04 00:44:00;;;;;;;4.80;2.05;;;;;;;-148.88;100.00;-17125.47;5014803;28;20026;-73
2023/07/04 00:46:37;;;;;;;3.90;1.80;;;;;;;-148.88;100.00;-17125.47;5015557;28;20025;-73
2023/07/04 00:49:14;;;;;;;7.82;2.05;;;;;;;-148.88;100.00;-17125.47;5015409;28;20030;-73
2023/07/04 00:51:42;;;;;;;5.18;1.70;;;;;;;-148.88;100.00;-17125.47;5015544;28;20022;-73
2023/07/04 00:54:08;;;;;;;4.03;1.70;;;;;;;-148.88;100.00;-17125.47;5015160;28;20466;-72
2023/07/04 00:56:33;;;;;;;6.05;2.00;;;;;;;-148.88;100.00;-17125.47;5014882;28;20032;-73
2023/07/04 00:59:00;;;;;;;5.13;1.92;;;;;;;-148.88;100.00;-17125.47;5015284;28;20033;-73
2023/07/04 01:01:27;;;;;;;6.25;1.90;;;;;;;-148.88;100.00;-17125.47;5015147;28;20026;-73
2023/07/04 01:03:55;;;;;;;4.20;1.90;;;;;;;-148.88;100.00;-17125.47;5015025;28;20022;-73
2023/07/04 01:06:35;;;;;;;5.18;1.75;;;;;;;-148.88;100.00;-17125.47;5015291;28;20014;-73
2023/07/04 01:09:04;;;;;;;3.47;1.60;;;;;;;-148.88;100.00;-17125.47;5015314;28;20022;-73
2023/07/04 01:11:34;;;;;;;3.83;1.60;;;;;;;-148.88;100.00;-17125.47;4997498;28;20045;-73
2023/07/04 01:14:03;;;;;;;5.60;1.83;;;;;;;-148.88;100.00;-17125.47;5014837;28;20448;-73
2023/07/04 01:16:29;;;;;;;6.30;1.83;;;;;;;-148.88;100.00;-17125.47;4997205;28;20548;-73
2023/07/04 01:18:57;;;;;;;4.78;2.00;;;;;;;-148.88;100.00;-17125.47;5014637;28;20030;-72
2023/07/04 01:21:27;;;;;;;5.20;2.00;;;;;;;-148.88;100.00;-17125.47;5014845;28;20432;-73
2023/07/04 01:24:10;;;;;;;4.50;2.08;;;;;;;-148.88;100.00;-17125.47;5015060;28;20053;-72
2023/07/04 01:26:39;;;;;;;5.40;2.10;;;;;;;-148.88;100.00;-17125.47;4997099;28;20018;-73
2023/07/04 01:29:08;;;;;;;5.03;2.20;;;;;;;-148.88;100.00;-17125.47;4997270;28;20519;-72
2023/07/04 01:31:35;;;;;;;7.22;2.20;;;;;;;-148.88;100.00;-17125.47;4996967;28;20022;-72
2023/07/04 01:34:04;;;;;;;5.13;2.00;;;;;;;-148.88;100.00;-17125.47;5014345;28;20389;-73
2023/07/04 01:36:31;;;;;;;4.05;1.80;;;;;;;-148.88;100.00;-17125.47;5014369;28;20028;-73
2023/07/04 01:38:57;;;;;;;4.63;1.95;;;;;;;-148.88;100.00;-17125.47;5014263;28;20489;-72
2023/07/04 01:41:24;;;;;;;4.97;2.22;;;;;;;-148.88;100.00;-17125.47;5014592;28;20040;-73
2023/07/04 01:44:04;;;;;;;4.28;1.65;;;;;;;-148.88;100.00;-17125.47;5014394;28;20104;-72
2023/07/04 01:46:31;;;;;;;4.65;1.67;;;;;;;-148.88;100.00;-17125.47;5014679;28;20156;-73
2023/07/04 01:48:57;;;;;;;4.38;1.80;;;;;;;-148.88;100.00;-17125.47;5014747;28;20030;-73
2023/07/04 01:51:26;;;;;;;4.20;1.52;;;;;;;-148.88;100.00;-17125.47;5014794;28;20022;-73
2023/07/04 01:53:52;;;;;;;5.80;2.25;;;;;;;-148.88;100.00;-17125.47;5014222;28;20029;-73
2023/07/04 01:56:17;;;;;;;4.18;1.70;;;;;;;-148.88;100.00;-17125.47;5013760;28;20038;-73
2023/07/04 01:58:42;;;;;;;6.00;2.00;;;;;;;-148.88;100.00;-17125.47;4996910;28;20084;-73
2023/07/04 02:01:08;;;;;;;4.88;1.60;;;;;;;-148.88;100.00;-17125.47;5014076;28;20034;-73
2023/07/04 02:03:34;;;;;;;5.55;1.58;;;;;;;-148.88;100.00;-17125.47;4996170;28;20040;-72
2023/07/04 02:06:00;;;;;;;3.88;1.73;;;;;;;-148.88;100.00;-17125.47;5013791;28;20068;-73
2023/07/04 02:08:26;;;;;;;4.50;1.77;;;;;;;-148.88;100.00;-17125.47;4996147;28;20037;-72
2023/07/04 02:10:51;;;;;;;4.53;1.60;;;;;;;-148.88;100.00;-17125.47;5013564;28;20022;-72
2023/07/04 02:13:16;;;;;;;4.57;1.60;;;;;;;-148.88;100.00;-17125.47;5013526;28;20026;-73
2023/07/04 02:15:42;;;;;;;6.80;1.83;;;;;;;-148.88;100.00;-17125.47;5013798;28;20045;-72
2023/07/04 02:18:07;;;;;;;8.50;1.90;;;;;;;-148.88;100.00;-17125.47;5013869;28;20038;-73
2023/07/04 02:20:33;;;;;;;3.90;1.63;;;;;;;-148.88;100.00;-17125.47;5013516;28;20385;-72
2023/07/04 02:22:58;;;;;;;7.68;2.00;;;;;;;-148.88;100.00;-17125.47;4995591;28;20131;-73
2023/07/04 02:25:23;;;;;;;5.78;2.25;;;;;;;-148.88;100.00;-17125.47;5013706;28;20037;-73
2023/07/04 02:27:49;;;;;;;6.05;1.80;;;;;;;-148.88;100.00;-17125.47;5013349;28;20093;-73
2023/07/04 02:30:14;;;;;;;4.78;1.83;;;;;;;-148.88;100.00;-17125.47;5013360;28;20026;-73
2023/07/04 02:32:39;;;;;;;5.38;1.85;;;;;;;-148.88;100.00;-17125.47;5013280;28;20037;-73
2023/07/04 02:35:05;;;;;;;4.60;1.52;;;;;;;-148.88;100.00;-17125.47;5013300;28;20062;-73
2023/07/04 02:37:30;;;;;;;5.45;1.80;;;;;;;-148.88;100.00;-17125.47;5013019;28;20025;-73
2023/07/04 02:39:57;;;;;;;4.82;1.65;;;;;;;-148.88;100.00;-17125.47;5013238;28;20053;-72
2023/07/04 02:42:22;;;;;;;6.38;1.67;;;;;;;-148.88;100.00;-17125.47;5013004;28;20032;-73
2023/07/04 02:44:47;;;;;;;5.05;1.65;;;;;;;-148.88;100.00;-17125.47;5013212;28;20026;-73
2023/07/04 02:47:13;;;;;;;6.05;1.80;;;;;;;-148.88;100.00;-17125.47;5013232;28;20022;-73
2023/07/04 02:49:38;;;;;;;6.50;1.70;;;;;;;-148.88;100.00;-17125.47;5013209;28;20022;-73
2023/07/04 02:52:05;;;;;;;5.13;1.77;;;;;;;-148.88;100.00;-17125.47;5013062;28;20144;-72
2023/07/04 02:54:30;;;;;;;4.32;1.50;;;;;;;-148.88;100.00;-17125.47;5013026;28;20053;-73
2023/07/04 02:56:55;;;;;;;3.88;1.50;;;;;;;-148.88;100.00;-17125.47;5012890;28;20057;-73
2023/07/04 02:59:21;;;;;;;4.57;1.52;;;;;;;-148.88;100.00;-17125.47;5013205;28;20030;-73
2023/07/04 03:01:47;;;;;;;4.55;1.73;;;;;;;-148.88;100.00;-17125.47;5013255;28;20523;-73
2023/07/04 03:04:13;;;;;;;4.75;1.52;;;;;;;-148.88;100.00;-17125.47;5012966;28;20021;-73
2023/07/04 03:06:39;;;;;;;5.80;1.75;;;;;;;-148.88;100.00;-17125.47;5012758;28;20018;-73
2023/07/04 03:09:04;;;;;;;5.80;1.63;;;;;;;-148.88;100.00;-17125.47;5012814;28;20109;-72
2023/07/04 03:11:30;;;;;;;5.65;1.85;;;;;;;-148.88;100.00;-17125.47;5012553;28;20038;-73
2023/07/04 03:13:56;;;;;;;6.28;1.67;;;;;;;-148.88;100.00;-17125.47;5012817;28;20193;-73
2023/07/04 03:16:21;;;;;;;3.80;1.38;;;;;;;-148.88;100.00;-17125.47;5012717;28;20022;-72
2023/07/04 03:18:46;;;;;;;3.50;1.63;;;;;;;-148.88;100.00;-17125.47;5012723;28;20030;-72
2023/07/04 03:21:12;;;;;;;5.15;1.45;;;;;;;-148.88;100.00;-17125.47;5012688;28;20030;-72
2023/07/04 03:23:37;;;;;;;5.05;1.83;;;;;;;-148.88;100.00;-17125.47;5012817;28;20026;-72
2023/07/04 03:26:03;;;;;;;4.70;1.40;;;;;;;-148.88;100.00;-17125.47;5012926;28;20029;-73
2023/07/04 03:28:28;;;;;;;3.80;1.58;;;;;;;-148.88;100.00;-17125.47;5012647;28;20496;-72
2023/07/04 03:30:54;;;;;;;5.70;2.08;;;;;;;-148.88;100.00;-17125.47;5012961;28;20104;-73
2023/07/04 03:33:20;;;;;;;5.53;1.83;;;;;;;-148.88;100.00;-17125.47;5012673;28;20049;-73
2023/07/04 03:35:45;;;;;;;5.53;1.67;;;;;;;-148.88;100.00;-17125.47;5012938;28;20550;-72
2023/07/04 03:38:11;;;;;;;4.25;1.70;;;;;;;-148.88;100.00;-17125.47;5015307;28;20068;-73
2023/07/04 03:40:36;;;;;;;5.93;2.25;;;;;;;-148.88;100.00;-17125.47;4995277;28;20022;-73
2023/07/04 03:43:01;;;;;;;6.53;1.83;;;;;;;-148.88;100.00;-17125.47;4995207;28;20496;-73
2023/07/04 03:45:27;;;;;;;5.13;1.67;;;;;;;-148.88;100.00;-17125.47;5013053;28;20510;-73
2023/07/04 03:47:52;;;;;;;4.95;1.77;;;;;;;-148.88;100.00;-17125.47;5012880;28;20014;-73
2023/07/04 03:50:17;;;;;;;4.10;1.63;;;;;;;-148.88;100.00;-17125.47;4994920;28;20139;-72
2023/07/04 03:52:44;;;;;;;6.72;1.90;;;;;;;-148.88;100.00;-17125.47;5012250;28;20025;-73
2023/07/04 03:55:09;;;;;;;5.55;1.63;;;;;;;-148.88;100.00;-17125.47;5012535;28;20419;-72
2023/07/04 03:57:35;;;;;;;5.30;1.83;;;;;;;-148.88;100.00;-17125.47;5012322;28;20472;-73
2023/07/04 04:00:00;;;;;;;4.00;2.00;;;;;;;-148.88;100.00;-17125.47;5012223;28;20108;-72
2023/07/04 04:02:26;;;;;;;6.75;2.10;;;;;;;-148.88;100.00;-17125.47;5012196;28;20018;-72
2023/07/04 04:04:51;;;;;;;4.80;1.80;;;;;;;-148.88;100.00;-17125.47;5012178;28;20037;-72
2023/07/04 04:07:16;;;;;;;4.68;1.73;;;;;;;-148.88;100.00;-17125.47;5012262;28;20464;-73
2023/07/04 04:09:42;;;;;;;7.32;2.17;;;;;;;-148.88;100.00;-17125.47;4994762;28;20038;-72
2023/07/04 04:12:08;;;;;;;4.90;1.88;;;;;;;-148.88;100.00;-17125.47;5012510;28;20084;-72
2023/07/04 04:14:35;;;;;;;5.28;1.85;;;;;;;-148.88;100.00;-17125.47;5012821;28;20406;-73
2023/07/04 04:17:01;;;;;;;4.57;2.05;;;;;;;-148.88;100.00;-17125.47;5012963;28;20476;-73
2023/07/04 04:19:27;;;;;;;4.97;2.00;;;;;;;-148.88;100.00;-17125.47;5015979;28;20104;-74
2023/07/04 04:21:53;;;;;;;5.25;1.92;;;;;;;-148.88;100.00;-17125.47;5016060;28;20049;-74
2023/07/04 04:24:20;;;;;;;4.25;1.90;;;;;;;-148.88;100.00;-17125.47;5016058;28;20026;-73
2023/07/04 04:26:47;;;;;;;7.22;2.22;;;;;;;-148.88;100.00;-17125.47;5015951;28;20528;-74
2023/07/04 04:29:15;;;;;;;5.63;1.83;;;;;;;-148.88;100.00;-17125.47;5015990;28;20112;-74
2023/07/04 04:31:41;;;;;;;5.00;2.00;;;;;;;-148.88;100.00;-17125.47;5015943;28;20025;-73
2023/07/04 04:34:07;;;;;;;4.65;1.88;;;;;;;-148.88;100.00;-17125.47;5015747;28;20026;-73
2023/07/04 04:36:33;;;;;;;5.25;1.83;;;;;;;-148.88;100.00;-17125.47;4998149;28;20017;-73
2023/07/04 04:39:00;;;;;;;4.10;1.67;;;;;;;-148.88;100.00;-17125.47;4998072;28;20112;-73
2023/07/04 04:41:27;;;;;;;6.47;2.17;;;;;;;-148.88;100.00;-17125.47;5015776;28;20046;-73
2023/07/04 04:43:54;;;;;;;6.80;2.17;;;;;;;-148.88;100.00;-17125.47;5015658;28;20072;-73
2023/07/04 04:46:20;;;;;;;4.93;1.90;;;;;;;-148.88;100.00;-17125.47;5015659;28;20048;-73
2023/07/04 04:48:45;;;;;;;7.93;2.20;;;;;;;-148.88;100.00;-17125.47;5015867;28;20053;-74
2023/07/04 04:51:14;;;;;;;6.35;2.10;;;;;;;-148.88;100.00;-17125.47;5015645;28;20046;-75
2023/07/04 04:53:44;;;;;;;10.45;1.95;;;;;;;-148.88;100.00;-17125.47;5015555;28;20026;-73
2023/07/04 04:56:11;;;;;;;5.28;1.70;;;;;;;-148.88;100.00;-17125.47;5015871;28;20427;-74
2023/07/04 04:58:37;;;;;;;4.50;2.00;;;;;;;-148.88;100.00;-17125.47;5015439;28;20034;-74
2023/07/04 05:01:22;;;;;;;5.07;2.00;;;;;;;-148.88;100.00;-17125.47;5015439;28;20507;-73
2023/07/04 05:03:53;;;;;;;4.88;2.20;;;;;;;-148.88;100.00;-17125.47;5015350;28;20018;-74
2023/07/04 05:06:23;;;;;;;5.00;1.80;;;;;;;-148.88;100.00;-17125.47;5015514;28;20490;-73
2023/07/04 05:08:49;;;;;;;6.88;2.47;;;;;;;-148.88;100.00;-17125.47;5015164;28;20021;-73
2023/07/04 05:11:15;;;;;;;4.10;2.20;;;;;;;-148.88;100.00;-17125.47;5014921;28;20030;-73
2023/07/04 05:13:42;;;;;;;5.00;2.28;;;;;;;-148.88;100.00;-17125.47;5015110;28;20028;-73
2023/07/04 05:16:10;;;;;;;6.57;2.60;;;;;;;-148.88;100.00;-17125.47;5015148;28;20022;-73
2023/07/04 05:18:36;;;;;;;5.60;2.17;;;;;;;-148.88;100.00;-17125.47;5015046;28;20029;-74
2023/07/04 05:21:07;;;;;;;6.63;2.22;;;;;;;-148.88;100.00;-17125.47;5015035;28;20057;-74
2023/07/04 05:23:34;;;;;;;5.18;2.20;;;;;;;-148.88;100.00;-17125.47;5014991;28;20116;-74
2023/07/04 05:26:02;;;;;;;8.27;2.25;;;;;;;-148.88;100.00;-17125.47;5015317;28;20388;-74
2023/07/04 05:28:28;;;;;;;5.50;2.30;;;;;;;-148.88;100.00;-17125.47;5015050;28;20033;-74
2023/07/04 05:31:05;;;;;;;5.72;2.50;;;;;;;-148.88;100.00;-17125.47;5014884;28;20503;-74
2023/07/04 05:33:32;;;;;;;5.22;2.40;;;;;;;-148.88;100.00;-17125.47;5014798;28;20030;-74
2023/07/04 05:36:04;;;;;;;6.60;2.40;;;;;;;-148.88;100.00;-17125.47;5014757;28;20018;-74
2023/07/04 05:38:29;;;;;;;4.95;2.40;;;;;;;-148.88;100.00;-17125.47;4997103;28;20044;-74
2023/07/04 05:40:55;;;;;;;11.20;3.33;;;;;;;-148.88;100.00;-17125.47;4997077;28;20022;-74
2023/07/04 05:43:20;;;;;;;7.25;2.80;;;;;;;-148.88;100.00;-17125.47;5014538;28;20499;-73
2023/07/04 05:45:49;;;;;;;6.40;2.60;;;;;;;-148.88;100.00;-17125.47;4996963;28;20028;-74
2023/07/04 05:48:15;;;;;;;5.75;2.67;;;;;;;-148.88;100.00;-17125.47;5014381;28;20022;-74
2023/07/04 05:50:58;;;;;;;6.32;2.72;;;;;;;-148.88;100.00;-17125.47;5014408;28;20388;-74
2023/07/04 05:53:27;;;;;;;5.70;2.60;;;;;;;-148.88;100.00;-17125.47;4996936;28;20022;-74
2023/07/04 05:56:03;;;;;;;10.13;3.08;;;;;;;-148.88;100.00;-17125.47;5014081;28;20488;-74
2023/07/04 05:58:28;;;;;;;8.77;2.72;;;;;;;-148.88;100.00;-17125.47;5014557;28;20030;-74
2023/07/04 06:00:57;;;;;;;7.68;2.90;;;;;;;-148.88;100.00;-17125.47;5014505;28;20026;-74
2023/07/04 06:03:22;;;;;;;8.60;3.25;;;;;;;-148.88;100.00;-17125.47;4996604;28;20029;-74
2023/07/04 06:05:48;;;;;;;7.97;2.53;;;;;;;-148.88;100.00;-17125.47;4996707;28;20095;-74
2023/07/04 06:08:13;;;;;;;6.90;2.85;;;;;;;-148.88;100.00;-17125.47;5014180;28;20400;-74
2023/07/04 06:10:38;;;;;;;6.10;2.95;;;;;;;-148.88;100.00;-17125.47;5014316;28;20041;-74
2023/07/04 06:13:04;;;;;;;8.70;3.35;;;;;;;-148.88;100.00;-17125.47;5013971;28;20029;-73
2023/07/04 06:15:29;;;;;;;6.55;2.58;;;;;;;-148.88;100.00;-17125.47;5013905;28;20384;-74
2023/07/04 06:17:55;;;;;;;4.70;2.30;;;;;;;-148.88;100.00;-17125.47;5014178;28;20048;-74
2023/07/04 06:20:20;;;;;;;9.27;2.97;;;;;;;-148.88;100.00;-17125.47;5014034;28;20503;-73
2023/07/04 06:22:46;;;;;;;7.32;2.80;;;;;;;-148.88;100.00;-17125.47;5013793;28;20037;-73
2023/07/04 06:25:11;;;;;;;8.60;3.58;;;;;;;-148.88;99.46;-17125.47;5013842;28;20112;-73
2023/07/04 06:27:37;;;;;;;6.20;2.88;;;;;;;-148.88;98.86;-17125.47;5014115;28;20045;-73
2023/07/04 06:30:04;;;;;;;7.32;3.47;;;;;;;-148.88;99.84;-17125.47;5013746;28;20547;-74
2023/07/04 06:32:29;;;;;;;6.60;3.28;;;;;;;-148.88;100.00;-17125.47;5013664;28;20106;-73
2023/07/04 06:34:54;;;;;;;6.63;3.35;;;;;;;-148.88;100.00;-17125.47;5013824;28;20032;-73
2023/07/04 06:37:19;;;;;;;9.82;3.47;;;;;;;-148.88;100.00;-17125.47;5013566;28;20532;-73
2023/07/04 06:39:45;;;;;;;8.27;3.45;;;;;;;-148.88;99.52;-17125.47;4996065;28;20029;-73
2023/07/04 06:42:10;;;;;;;6.25;3.13;;;;;;;-148.88;99.47;-17125.47;5013176;28;20396;-75
2023/07/04 06:44:36;;;;;;;7.00;2.97;;;;;;;-148.88;98.73;-17125.47;5013657;28;20500;-74
2023/07/04 06:47:01;;;;;;;6.10;2.78;;;;;;;-148.88;99.76;-17125.47;4996251;28;20481;-74
2023/07/04 06:49:27;;;;;;;9.73;3.30;;;;;;;-148.88;99.54;-17125.47;5013507;28;20492;-74
2023/07/04 06:51:52;;;;;;;8.80;3.45;;;;;;;-148.88;100.00;-17125.47;4995966;28;20028;-73
2023/07/04 06:54:17;;;;;;;7.70;3.00;;;;;;;-148.88;99.59;-17125.47;5013604;28;20054;-73
2023/07/04 06:56:43;;;;;;;6.40;2.85;;;;;;;-148.88;98.07;-17125.47;5013492;28;20065;-73
2023/07/04 06:59:09;;;;;;;7.28;3.00;;;;;;;-148.88;98.41;-17125.47;4995786;28;20137;-73
2023/07/04 07:01:34;;;;;;;8.00;3.47;;;;;;;-148.88;98.19;-17125.47;5013292;28;20029;-73
2023/07/04 07:03:59;;;;;;;8.00;3.53;;;;;;;-148.88;99.38;-17125.47;4995624;28;20030;-74
2023/07/04 07:06:26;;;;;;;7.22;3.38;;;;;;;-148.88;96.93;-17125.47;5013519;28;20022;-73
2023/07/04 07:08:51;;;;;;;5.13;3.22;;;;;;;-148.88;98.37;-17125.47;5013433;28;20033;-74
2023/07/04 07:11:19;;;;;;;7.72;3.65;;;;;;;-148.88;99.91;-17125.47;5012998;28;20025;-74
2023/07/04 07:13:46;;;;;;;7.50;3.03;;;;;;;-148.88;98.75;-17125.47;5013209;28;20026;-73
2023/07/04 07:16:19;;;;;;;9.07;3.88;;;;;;;-148.88;98.14;-17125.47;5013094;28;20538;-73
2023/07/04 07:18:45;;;;;;;8.25;3.30;;;;;;;-148.88;96.91;-17125.47;5013681;28;20026;-74
2023/07/04 07:21:14;;;;;;;10.90;3.47;;;;;;;-148.88;97.04;-17125.47;5013207;28;20025;-74
2023/07/04 07:23:40;;;;;;;7.30;3.35;;;;;;;-148.88;96.45;-17125.47;4995520;28;20029;-75
2023/07/04 07:26:08;;;;;;;9.27;3.90;;;;;;;-148.88;95.19;-17125.47;5013102;28;20029;-74
2023/07/04 07:28:39;;;;;;;8.30;3.35;;;;;;;-148.88;95.18;-17125.47;4996510;28;20021;-74
2023/07/04 07:31:14;;;;;;;9.85;3.95;;;;;;;-148.88;95.64;-17125.47;5013172;28;20032;-75
2023/07/04 07:33:41;;;;;;;8.45;3.25;;;;;;;-148.88;94.16;-17125.47;5012877;28;20018;-74
2023/07/04 07:36:15;;;;;;;6.88;3.05;;;;;;;-148.88;94.43;-17125.47;5013717;28;20053;-74
2023/07/04 07:38:42;;;;;;;8.85;3.30;;;;;;;-148.88;92.64;-17125.47;5013243;28;20026;-73
2023/07/04 07:41:08;;;;;;;7.32;3.03;;;;;;;-148.88;93.26;-17125.47;5012849;28;20061;-73
2023/07/04 07:43:36;;;;;;;8.18;3.00;;;;;;;-148.88;89.73;-17125.47;5012798;28;20416;-73
2023/07/04 07:46:01;;;;;;;9.30;2.97;;;;;;;-148.88;90.40;-17125.47;5012881;28;20018;-73
2023/07/04 07:48:27;;;;;;;7.05;3.10;;;;;;;-148.88;92.70;-17125.47;5012847;28;20022;-75
2023/07/04 07:50:52;;;;;;;9.48;3.10;;;;;;;-148.88;92.07;-17125.47;5012874;28;20032;-74
2023/07/04 07:53:18;;;;;;;10.88;3.47;;;;;;;-148.88;92.49;-17125.47;5015947;28;20022;-74
2023/07/04 07:55:43;;;;;;;7.88;3.30;;;;;;;-148.88;88.21;-17125.47;5017607;28;20036;-75
2023/07/04 07:58:09;;;;;;;7.35;3.13;;;;;;;-148.88;88.50;-17125.47;5000314;28;20048;-75
2023/07/04 08:00:35;;;;;;;11.57;3.47;;;;;;;-148.88;86.30;-17125.47;5018016;28;20488;-75
2023/07/04 08:03:00;;;;;;;9.02;3.83;;;;;;;-148.88;87.01;-17125.47;5016464;28;20403;-73
2023/07/04 08:05:26;;;;;;;8.13;3.35;;;;;;;-148.88;87.11;-17125.47;5016402;28;20396;-74
2023/07/04 08:07:51;;;;;;;12.77;3.03;;;;;;;-148.88;84.75;-17125.47;5016402;28;20022;-74
2023/07/04 08:10:17;;;;;;;7.53;2.50;;;;;;;-148.88;80.24;-17125.47;5016617;28;20021;-74
2023/07/04 08:12:42;;;;;;;6.88;2.70;;;;;;;-148.88;78.50;-17125.47;5016145;28;20372;-74
2023/07/04 08:15:08;;;;;;;10.98;3.40;;;;;;;-148.88;78.94;-17125.47;5016510;28;20030;-74
2023/07/04 08:17:33;;;;;;;15.98;2.97;;;;;;;-148.88;81.14;-17125.47;4998838;28;20022;-74
2023/07/04 08:19:59;;;;;;;7.70;2.78;;;;;;;-148.88;78.92;-17125.47;5016045;28;20029;-74
2023/07/04 08:22:24;;;;;;;6.78;2.70;;;;;;;-148.88;77.98;-17125.47;5016027;28;20022;-73
2023/07/04 08:24:49;;;;;;;7.30;3.10;;;;;;;-148.88;76.86;-17125.47;5016324;28;20048;-73
2023/07/04 08:27:15;;;;;;;10.25;3.00;;;;;;;-148.88;76.27;-17125.47;5016323;28;20018;-74
2023/07/04 08:29:40;;;;;;;8.65;3.00;;;;;;;-148.88;77.90;-17125.47;5016011;28;20030;-74
2023/07/04 08:32:06;;;;;;;9.75;3.28;;;;;;;-148.88;77.32;-17125.47;5015774;28;20392;-74
2023/07/04 08:34:31;;;;;;;9.48;2.88;;;;;;;-148.88;74.99;-17125.47;5015787;28;20100;-74
2023/07/04 08:36:57;;;;;;;12.60;3.20;;;;;;;-148.88;76.15;-17125.47;5015810;28;20029;-75
2023/07/04 08:39:23;;;;;;;7.35;3.00;;;;;;;-148.88;76.44;-17125.47;5016071;28;20026;-74
2023/07/04 08:41:56;;;;;;;9.60;2.90;;;;;;;-148.88;77.30;-17125.47;5016071;28;20030;-73
2023/07/04 08:44:40;;;;;;;6.68;2.63;;;;;;;-148.88;78.74;-17125.47;4998313;28;20386;-73
2023/07/04 08:47:09;;;;;;;10.45;3.03;;;;;;;-148.88;78.15;-17125.47;5015814;28;20548;-73
2023/07/04 08:49:39;;;;;;;8.00;2.72;;;;;;;-148.88;76.97;-17125.47;5015653;28;20034;-73
2023/07/04 08:52:16;;;;;;;10.52;3.58;;;;;;;-148.88;73.51;-17125.47;5015604;28;20022;-73
2023/07/04 08:54:41;;;;;;;11.25;3.83;;;;;;;-148.88;71.07;-17125.47;5015798;28;20049;-73
2023/07/04 08:57:27;;;;;;;9.48;3.58;;;;;;;-148.88;71.51;-17125.47;5015477;28;20050;-73
2023/07/04 08:59:59;;;;;;;9.05;3.05;;;;;;;-148.88;70.86;-17125.47;4997639;28;20045;-73
2023/07/04 09:03:02;;;;;;;9.18;3.28;;;;;;;-148.88;69.63;-17125.47;5015441;28;20022;-73
2023/07/04 09:05:42;;;;;;;10.32;3.47;;;;;;;-148.88;68.38;-17125.47;5014996;28;20064;-73
2023/07/04 09:08:28;;;;;;;8.30;3.28;;;;;;;-148.88;66.58;-17125.47;4997909;28;20040;-73
2023/07/04 09:11:30;;;;;;;;;;;;;;;;;;;;;
2023/07/04 09:17:50;;;;;;;10.13;3.10;;;;;;;-148.88;69.08;-17125.47;5035465;28;20172;-88
2023/07/04 09:20:15;;;;;;;10.88;3.45;;;;;;;-148.88;72.16;-17125.47;4952618;28;20146;-86
2023/07/04 09:25:21;;;;;;;10.45;4.03;;;;;;;-148.88;76.02;-17125.47;5063914;22;20052;-84
2023/07/04 09:27:46;;;;;;;11.48;4.07;;;;;;;-148.88;75.50;-17125.47;5037570;28;20025;-84
2023/07/04 09:30:12;;;;;;;11.40;3.97;;;;;;;-148.88;72.93;-17125.47;5039620;28;20142;-85
2023/07/04 09:32:38;;;;;;;11.60;3.88;;;;;;;-148.88;69.88;-17125.47;5025424;28;20080;-84
2023/07/04 09:35:11;;;;;;;8.63;3.40;;;;;;;-148.88;66.37;-17125.47;5024365;28;20504;-85
2023/07/04 09:37:56;;;;;;;9.38;3.17;;;;;;;-148.88;62.77;-17125.47;5023802;28;20029;-84
2023/07/04 09:40:42;;;;;;;9.23;3.72;;;;;;;-148.88;68.79;-17125.47;5024124;28;20060;-84
2023/07/04 09:43:24;;;;;;;13.10;4.07;;;;;;;-148.88;69.33;-17125.47;5042662;28;20014;-85
2023/07/04 09:45:50;;;;;;;10.68;3.42;;;;;;;-148.88;65.70;-17125.47;5042708;28;20550;-85
2023/07/04 09:48:24;;;;;;;12.55;3.72;;;;;;;-148.88;65.28;-17125.47;5041971;28;20041;-84
2023/07/04 09:51:38;;;;;;;8.55;2.90;;;;;;;-148.88;64.16;-17125.47;5042184;28;20027;-85
2023/07/04 09:54:14;;;;;;;;;;;;;;;-148.88;61.57;-17125.47;5022023;28;20098;-85
2023/07/04 09:56:41;;;;;;;8.45;2.83;;;;;;;-148.88;60.99;-17125.47;5025252;28;19917;-85
2023/07/04 09:59:20;;;;;;;7.57;2.83;;;;;;;-148.88;58.50;-17125.47;5026379;28;20021;-85
2023/07/04 10:01:58;;;;;;;8.82;2.60;;;;;;;-148.88;58.01;-17125.47;5043080;28;20365;-86
2023/07/04 10:04:27;;;;;;;8.93;3.33;;;;;;;-148.88;59.20;-17125.47;5020632;28;20039;-85
2023/07/04 10:07:05;;;;;;;9.02;3.03;;;;;;;-148.88;57.85;-17125.47;5019297;28;20511;-85
2023/07/04 10:09:33;;;;;;;8.40;2.95;;;;;;;-148.88;57.17;-17125.47;5038935;28;20021;-84
2023/07/04 10:12:13;;;;;;;9.02;3.00;;;;;;;-148.88;59.38;-17125.47;5022084;28;20035;-85
2023/07/04 10:14:53;;;;;;;9.05;2.83;;;;;;;-148.88;55.21;-17125.47;5022905;28;20034;-83
2023/07/04 10:17:21;;;;;;;8.20;2.78;;;;;;;-148.88;54.40;-17125.47;5022579;28;20432;-84
2023/07/04 10:19:54;;;;;;;10.63;3.10;;;;;;;-148.88;55.82;-17125.47;5022603;28;20025;-84
2023/07/04 10:23:05;;;;;;;10.95;3.55;;;;;;;-148.88;56.30;-17125.47;5023609;28;20037;-83
2023/07/04 10:25:37;;;;;;;7.45;2.83;;;;;;;-148.88;55.38;-17125.47;5035475;28;20050;-84
2023/07/04 10:28:13;;;;;;;7.97;3.40;;;;;;;-148.88;55.11;-17125.47;5022636;28;20025;-83
2023/07/04 10:31:00;;;;;;;9.85;3.60;;;;;;;-148.88;56.95;-17125.47;5023060;28;20029;-83
2023/07/04 10:33:48;;;;;;;8.32;3.50;;;;;;;-148.88;55.77;-17125.47;5022860;28;20529;-84
2023/07/04 10:36:43;;;;;;;11.50;3.53;;;;;;;-148.88;56.05;-17125.47;5023881;28;20044;-83
2023/07/04 10:39:31;;;;;;;9.63;3.67;;;;;;;-148.88;56.96;-17125.47;5024338;28;20036;-84
2023/07/04 10:42:21;;;;;;;8.65;3.72;;;;;;;-148.88;57.72;-17125.47;5021026;28;20039;-82
2023/07/04 10:44:51;;;;;;;11.85;4.28;;;;;;;-148.88;56.83;-17125.47;5019570;28;20025;-83
2023/07/04 10:47:29;;;;;;;9.13;4.00;;;;;;;-148.88;56.67;-17125.47;5021035;28;20014;-83
2023/07/04 10:50:00;;;;;;;9.20;3.70;;;;;;;-148.88;54.46;-17125.47;5018830;28;20025;-83
2023/07/04 10:52:31;;;;;;;7.85;3.60;;;;;;;-148.88;55.48;-17125.47;5019443;28;20454;-84
2023/07/04 10:55:23;;;;;;;9.18;3.78;;;;;;;-148.88;54.81;-17125.47;5021687;28;20091;-83
2023/07/04 10:58:16;;;;;;;11.05;3.95;;;;;;;-148.88;57.14;-17125.47;5023523;28;20044;-83
2023/07/04 11:01:06;;;;;;;8.98;3.75;;;;;;;-148.88;58.34;-17125.47;5039531;28;20029;-84
2023/07/04 11:04:04;;;;;;;8.40;3.45;;;;;;;-148.88;54.88;-17125.47;5021448;28;20034;-83
2023/07/04 11:06:47;;;;;;;12.50;4.03;;;;;;;-148.88;55.73;-17125.47;5040407;28;20026;-83
2023/07/04 11:09:17;;;;;;;6.55;3.13;;;;;;;-148.88;55.56;-17125.47;5022448;28;20033;-82
2023/07/04 11:11:50;;;;;;;10.73;3.58;;;;;;;-148.88;56.22;-17125.47;5022094;28;20492;-83
2023/07/04 11:14:42;;;;;;;9.32;3.50;;;;;;;-148.88;56.84;-17125.47;5022722;28;20498;-82
2023/07/04 11:17:21;;;;;;;7.97;3.60;;;;;;;-148.88;57.24;-17125.47;5023644;28;20103;-83
2023/07/04 11:20:13;;;;;;;9.98;4.68;;;;;;;-148.88;57.00;-17125.47;5019712;28;20022;-83
2023/07/04 11:22:51;;;;;;;7.95;3.50;;;;;;;-148.88;56.42;-17125.47;5029310;28;20380;-83